首页
METAR-TAF:

METAR-TAF

机场 :

密尔沃基, 威斯康辛州, 美国

纬度: 42-57-18N, 经度: 087-54-16W, 海拔: 220米

当前天气观测

该预报发布于1小时和7分钟前的11:52 UTC
风速8节,风向西北
温度 -13°C
湿度 66%
气压 1030 hPa
能見度: 16.1公里
天空无云

METAR: KMKE 121152Z 31008KT 10SM CLR M13/M18 A3043 RMK AO2 SLP321 4/003 70005 T11281183 11100 21128 51010 $

时间: 06:59 (12:59 UTC)

预报

该预报发布于1小时和39分钟前的11:20 UTC
预报有效从12日的 12点(UTC)到 13日的 18点(UTC)
风速12节,风向西转西北,有时为20节阵风
能見度: 10公里
天空无云
从 12日的 1700点(UTC)
风速11节,风向西转西北
能見度: 10公里
天空无云
从 12日的 2200点(UTC)
风速8节,风向西
能見度: 10公里
天空无云
从 13日的 0500点(UTC)
风速6节,风向西南
能見度: 10公里
少量云层高于20000英尺
从 13日的 1100点(UTC)
风速10节,风向,有时为20节阵风
能見度: 10公里
多云层高于12000英尺

TAF: KMKE 121120Z 1212/1318 30012G20KT P6SM SKC FM121700 30011KT P6SM SKC FM122200 28008KT P6SM SKC FM130500 22006KT P6SM FEW200 FM131100 19010G20KT P6SM BKN120

超过4000个机场的气象观测和天气预报(METAR&TAF报告)。

可查询的气象台以黄色和红色小点在地图上表示。

将鼠标移到小点上方,可查看气象台名称。

然后点击查看天气观测和预报。

如需切换地图:点击带黑十字的绿色按钮放大地图;点击带横线的绿色按钮缩小地图;或者点击绿色箭头查看邻近地区的地图。


METAR-TAF: